Time;durP1;ratioP1;P1;durP2;ratioP2;P2;SDS_P1;SDS_P2;PMS_P1;PMS_P2;Temp;Humidity;BMP_temperature;BMP_pressure;BME280_temperature;BME280_humidity;BME280_pressure;Samples;Min_cycle;Max_cycle;Signal;HPM_P1;HPM_P2
2023/07/28 00:00:37;;;;;;;18.25;16.67;;;17.90;99.90;;;;;;6371199;22;20441;-84
2023/07/28 00:03:03;;;;;;;5.45;1.58;;;18.00;99.90;;;;;;6369943;22;20097;-85
2023/07/28 00:05:28;;;;;;;3.88;1.20;;;17.90;99.90;;;;;;6369724;22;20014;-84
2023/07/28 00:07:54;;;;;;;2.28;1.10;;;17.90;99.90;;;;;;6369692;22;20021;-84
2023/07/28 00:10:20;;;;;;;2.50;1.30;;;17.90;99.90;;;;;;6369372;22;20441;-84
2023/07/28 00:12:45;;;;;;;2.25;1.00;;;17.90;99.90;;;;;;6371661;22;20107;-85
2023/07/28 00:15:11;;;;;;;3.38;1.27;;;17.90;99.90;;;;;;6374214;22;20075;-84
2023/07/28 00:17:37;;;;;;;7.22;3.05;;;17.90;99.90;;;;;;6371988;22;20060;-84
2023/07/28 00:20:03;;;;;;;2.40;0.95;;;18.00;99.90;;;;;;6372192;22;20044;-84
2023/07/28 00:22:29;;;;;;;2.25;1.15;;;17.90;99.90;;;;;;6369410;22;20071;-84
2023/07/28 00:24:54;;;;;;;4.05;1.10;;;18.00;99.90;;;;;;6369290;22;20045;-85
2023/07/28 00:27:20;;;;;;;2.00;0.90;;;17.90;99.90;;;;;;6370523;22;20010;-84
2023/07/28 00:29:46;;;;;;;2.13;1.20;;;18.00;99.90;;;;;;6369165;22;20385;-84
2023/07/28 00:32:11;;;;;;;2.70;1.10;;;18.00;99.90;;;;;;6370941;22;20019;-84
2023/07/28 00:34:37;;;;;;;6.85;2.05;;;18.00;99.90;;;;;;6371235;22;20018;-84
2023/07/28 00:37:03;;;;;;;4.82;1.58;;;18.00;99.90;;;;;;6370767;22;20066;-83
2023/07/28 00:39:29;;;;;;;5.28;1.90;;;18.00;99.90;;;;;;6369071;22;20018;-84
2023/07/28 00:41:54;;;;;;;6.35;2.45;;;18.00;99.90;;;;;;6370831;22;20112;-84
2023/07/28 00:44:20;;;;;;;8.27;1.92;;;18.00;99.90;;;;;;6370803;22;20014;-84
2023/07/28 00:46:46;;;;;;;10.20;3.03;;;18.00;99.90;;;;;;6370930;22;20019;-84
2023/07/28 00:49:11;;;;;;;7.45;2.63;;;18.00;99.90;;;;;;6371021;22;20456;-83
2023/07/28 00:51:38;;;;;;;4.43;1.65;;;18.00;99.90;;;;;;6369785;22;20018;-84
2023/07/28 00:54:05;;;;;;;10.43;2.47;;;18.00;99.90;;;;;;6370388;22;20047;-84
2023/07/28 00:56:31;;;;;;;8.10;2.33;;;18.10;99.90;;;;;;6316440;22;20097;-84
2023/07/28 00:58:57;;;;;;;6.40;1.60;;;18.00;99.90;;;;;;6342277;22;20185;-84
2023/07/28 01:01:23;;;;;;;3.17;1.35;;;18.00;99.90;;;;;;6342981;22;20010;-84
2023/07/28 01:03:50;;;;;;;8.05;2.03;;;18.00;99.90;;;;;;6370909;22;20060;-84
2023/07/28 01:06:43;;;;;;;3.30;1.50;;;18.00;99.90;;;;;;6370111;22;20513;-83
2023/07/28 01:09:19;;;;;;;7.07;2.53;;;18.00;99.90;;;;;;6342799;22;20019;-84
2023/07/28 01:11:54;;;;;;;7.30;2.03;;;18.00;99.90;;;;;;6370453;22;20018;-85
2023/07/28 01:14:20;;;;;;;4.18;1.90;;;18.00;99.90;;;;;;6342349;22;20453;-84
2023/07/28 01:16:46;;;;;;;4.93;1.58;;;18.00;99.90;;;;;;6370229;22;20013;-84
2023/07/28 01:19:12;;;;;;;3.85;1.30;;;18.00;99.90;;;;;;6316075;22;20019;-84
2023/07/28 01:21:43;;;;;;;3.85;1.20;;;18.00;99.90;;;;;;6316245;22;20060;-84
2023/07/28 01:24:32;;;;;;;2.25;1.10;;;18.00;99.90;;;;;;6370289;22;20513;-84
2023/07/28 01:26:58;;;;;;;9.73;1.80;;;18.00;99.90;;;;;;6370474;22;20019;-85
2023/07/28 01:29:27;;;;;;;7.70;2.67;;;18.00;99.90;;;;;;6342444;22;20028;-85
2023/07/28 01:31:53;;;;;;;5.72;1.90;;;18.00;99.90;;;;;;6342318;22;20014;-84
2023/07/28 01:34:18;;;;;;;5.82;1.85;;;18.00;99.90;;;;;;6342186;22;20346;-84
2023/07/28 01:36:44;;;;;;;4.75;1.35;;;18.00;99.90;;;;;;6342568;22;20014;-84
2023/07/28 01:39:10;;;;;;;1.58;0.90;;;18.00;99.90;;;;;;6316184;22;20096;-85
2023/07/28 01:41:36;;;;;;;10.88;1.75;;;18.00;99.90;;;;;;6370231;22;20021;-84
2023/07/28 01:44:02;;;;;;;9.70;3.10;;;18.00;99.90;;;;;;6342256;22;20335;-85
2023/07/28 01:46:28;;;;;;;5.47;1.70;;;18.00;99.90;;;;;;6369611;22;20093;-85
2023/07/28 01:48:53;;;;;;;4.70;1.52;;;18.00;99.90;;;;;;6342610;22;20049;-84
2023/07/28 01:51:19;;;;;;;8.15;1.50;;;18.00;99.90;;;;;;6370680;22;20042;-84
2023/07/28 01:53:45;;;;;;;6.20;1.50;;;18.00;99.90;;;;;;6342272;22;20093;-84
2023/07/28 01:56:10;;;;;;;3.30;1.23;;;18.00;99.90;;;;;;6364548;22;20050;-84
2023/07/28 01:58:36;;;;;;;3.47;1.50;;;18.00;99.90;;;;;;6368836;22;20022;-84
2023/07/28 02:01:02;;;;;;;9.27;2.95;;;18.00;99.90;;;;;;6368836;22;20450;-84
2023/07/28 02:03:29;;;;;;;4.35;2.50;;;18.10;99.90;;;;;;6370658;22;20016;-84
2023/07/28 02:05:55;;;;;;;6.85;2.53;;;18.00;99.90;;;;;;6370062;22;20053;-85
2023/07/28 02:08:20;;;;;;;5.82;1.90;;;18.00;99.90;;;;;;6370565;22;20021;-84
2023/07/28 02:10:46;;;;;;;7.00;2.13;;;18.00;99.90;;;;;;6370468;22;20067;-84
2023/07/28 02:13:12;;;;;;;3.85;1.38;;;18.00;99.90;;;;;;6370551;22;20484;-84
2023/07/28 02:15:37;;;;;;;3.08;1.40;;;18.00;99.90;;;;;;6369023;22;20025;-84
2023/07/28 02:18:04;;;;;;;9.73;3.95;;;18.00;99.90;;;;;;6368425;22;20433;-84
2023/07/28 02:20:30;;;;;;;6.90;2.38;;;18.00;99.90;;;;;;6368537;22;20022;-83
2023/07/28 02:22:56;;;;;;;3.20;1.95;;;18.00;99.90;;;;;;6368598;22;20014;-84
2023/07/28 02:25:22;;;;;;;9.25;2.95;;;18.00;99.90;;;;;;6370506;22;20014;-84
2023/07/28 02:27:47;;;;;;;6.50;1.90;;;18.00;99.90;;;;;;6367854;22;20453;-84
2023/07/28 02:30:13;;;;;;;5.28;1.73;;;18.00;99.90;;;;;;6368508;22;20014;-84
2023/07/28 02:32:39;;;;;;;2.60;1.27;;;18.00;99.90;;;;;;6368594;22;20448;-84
2023/07/28 02:35:05;;;;;;;2.58;1.63;;;18.00;99.90;;;;;;6369844;22;20014;-83
2023/07/28 02:37:31;;;;;;;2.85;1.67;;;18.00;99.90;;;;;;6370213;22;20445;-84
2023/07/28 02:39:56;;;;;;;2.92;1.38;;;18.00;99.90;;;;;;6368228;22;20014;-84
2023/07/28 02:42:23;;;;;;;2.20;1.30;;;18.00;99.90;;;;;;6369947;22;20363;-84
2023/07/28 02:44:49;;;;;;;2.78;1.60;;;18.00;99.90;;;;;;6369495;22;20053;-84
2023/07/28 02:47:15;;;;;;;4.85;3.00;;;18.00;99.90;;;;;;6368337;22;20015;-84
2023/07/28 02:49:42;;;;;;;3.08;1.85;;;18.00;99.90;;;;;;6371281;22;20021;-83
2023/07/28 02:52:08;;;;;;;3.75;1.33;;;18.00;99.90;;;;;;6371808;22;20015;-84
2023/07/28 02:54:33;;;;;;;4.65;1.48;;;18.00;99.90;;;;;;6371443;22;20063;-83
2023/07/28 02:56:59;;;;;;;2.15;1.17;;;18.00;99.90;;;;;;6343547;22;20014;-83
2023/07/28 02:59:25;;;;;;;5.05;1.20;;;18.00;99.90;;;;;;6371703;22;20018;-84
2023/07/28 03:01:53;;;;;;;5.05;1.40;;;18.00;99.90;;;;;;6371691;22;20007;-84
2023/07/28 03:04:22;;;;;;;6.18;1.83;;;18.00;99.90;;;;;;6371877;22;20018;-84
2023/07/28 03:06:47;;;;;;;3.95;1.23;;;18.00;99.90;;;;;;6343266;22;20437;-84
2023/07/28 03:09:14;;;;;;;5.70;1.52;;;18.00;99.90;;;;;;6343899;22;20053;-84
2023/07/28 03:11:42;;;;;;;3.25;1.58;;;18.00;99.90;;;;;;6343779;22;20059;-84
2023/07/28 03:14:08;;;;;;;2.03;1.00;;;18.00;99.90;;;;;;6371636;22;20364;-84
2023/07/28 03:16:33;;;;;;;3.67;1.80;;;18.00;99.90;;;;;;6371086;22;20021;-84
2023/07/28 03:18:59;;;;;;;4.07;1.40;;;18.00;99.90;;;;;;6343775;22;20018;-84
2023/07/28 03:21:25;;;;;;;8.65;1.98;;;18.00;99.90;;;;;;6371958;22;20336;-84
2023/07/28 03:23:50;;;;;;;6.15;2.22;;;18.00;99.90;;;;;;6371592;22;20476;-84
2023/07/28 03:26:16;;;;;;;5.75;2.05;;;18.00;99.90;;;;;;6317539;22;20050;-84
2023/07/28 03:28:41;;;;;;;4.60;1.73;;;18.00;99.90;;;;;;6343720;22;20018;-84
2023/07/28 03:31:07;;;;;;;4.25;1.65;;;18.00;99.90;;;;;;6371675;22;20515;-84
2023/07/28 03:33:33;;;;;;;6.18;2.53;;;18.00;99.90;;;;;;6371719;22;20313;-85
2023/07/28 03:35:59;;;;;;;6.25;2.08;;;18.00;99.90;;;;;;6343119;22;20025;-84
2023/07/28 03:38:24;;;;;;;3.35;1.52;;;18.00;99.90;;;;;;6371471;22;20365;-84
2023/07/28 03:40:50;;;;;;;6.15;1.85;;;18.00;99.90;;;;;;6371664;22;20019;-85
2023/07/28 03:43:16;;;;;;;3.60;1.50;;;18.00;99.90;;;;;;6371444;22;20041;-84
2023/07/28 03:45:42;;;;;;;6.93;2.05;;;18.00;99.90;;;;;;6371723;22;20015;-84
2023/07/28 03:48:07;;;;;;;5.22;1.50;;;18.00;99.90;;;;;;6370961;22;20017;-85
2023/07/28 03:50:33;;;;;;;5.88;2.40;;;18.00;99.90;;;;;;6343663;22;20322;-85
2023/07/28 03:52:59;;;;;;;3.80;1.40;;;18.00;99.90;;;;;;6370833;22;20019;-84
2023/07/28 03:55:24;;;;;;;5.03;1.60;;;18.00;99.90;;;;;;6355504;22;20101;-85
2023/07/28 03:57:50;;;;;;;3.65;1.58;;;18.00;99.90;;;;;;6369274;22;20025;-85
2023/07/28 04:00:16;;;;;;;4.57;1.63;;;18.00;99.90;;;;;;6371147;22;20010;-84
2023/07/28 04:02:41;;;;;;;9.23;1.60;;;18.00;99.90;;;;;;6371361;22;20011;-85
2023/07/28 04:05:07;;;;;;;3.67;2.40;;;18.00;99.90;;;;;;6368865;22;20511;-85
2023/07/28 04:07:33;;;;;;;3.83;1.48;;;18.00;99.90;;;;;;6371157;22;20396;-84
2023/07/28 04:09:58;;;;;;;6.50;1.52;;;18.00;99.90;;;;;;6369601;22;20030;-84
2023/07/28 04:12:24;;;;;;;4.72;1.30;;;18.00;99.90;;;;;;6371271;22;20140;-84
2023/07/28 04:14:50;;;;;;;4.57;1.27;;;18.00;99.90;;;;;;6369097;22;20111;-84
2023/07/28 04:17:15;;;;;;;4.43;1.30;;;18.00;99.90;;;;;;6369148;22;20018;-85
2023/07/28 04:19:41;;;;;;;8.30;1.50;;;18.00;99.90;;;;;;6369253;22;20056;-84
2023/07/28 04:22:07;;;;;;;4.90;1.77;;;18.00;99.90;;;;;;6371206;22;20342;-84
2023/07/28 04:24:33;;;;;;;3.35;1.50;;;18.00;99.90;;;;;;6368600;22;20026;-84
2023/07/28 04:26:58;;;;;;;2.47;1.40;;;18.00;99.90;;;;;;6369492;22;20364;-84
2023/07/28 04:29:24;;;;;;;2.55;1.50;;;18.00;99.90;;;;;;6369633;22;20022;-84
2023/07/28 04:31:50;;;;;;;3.72;1.10;;;18.00;99.90;;;;;;6342940;22;20022;-86
2023/07/28 04:34:15;;;;;;;6.38;1.33;;;18.00;99.90;;;;;;6370518;22;20013;-84
2023/07/28 04:36:41;;;;;;;2.17;1.20;;;18.00;99.90;;;;;;6370649;22;20051;-84
2023/07/28 04:39:07;;;;;;;5.43;1.77;;;18.00;99.90;;;;;;6369105;22;20476;-84
2023/07/28 04:41:32;;;;;;;2.20;1.00;;;18.00;99.90;;;;;;6369232;22;20088;-84
2023/07/28 04:43:58;;;;;;;3.35;1.15;;;18.00;99.90;;;;;;6369755;22;20432;-85
2023/07/28 04:46:24;;;;;;;3.95;1.55;;;18.00;99.90;;;;;;6370161;22;20021;-84
2023/07/28 04:48:49;;;;;;;3.42;1.27;;;18.00;99.90;;;;;;6368878;22;20535;-83
2023/07/28 04:51:15;;;;;;;4.47;1.40;;;18.00;99.90;;;;;;6370803;22;20015;-84
2023/07/28 04:53:41;;;;;;;4.65;1.27;;;18.00;99.90;;;;;;6370831;22;20013;-85
2023/07/28 04:56:07;;;;;;;1.90;1.23;;;18.00;99.90;;;;;;6370147;22;20014;-84
2023/07/28 04:58:33;;;;;;;5.88;1.85;;;18.10;99.90;;;;;;6343026;22;20371;-84
2023/07/28 05:00:59;;;;;;;6.18;2.13;;;18.00;99.90;;;;;;6370424;22;20018;-83
2023/07/28 05:03:25;;;;;;;7.07;1.77;;;18.10;99.90;;;;;;6370720;22;20021;-83
2023/07/28 05:05:50;;;;;;;5.43;1.73;;;18.10;99.90;;;;;;6342388;22;20090;-83
2023/07/28 05:08:16;;;;;;;4.45;1.70;;;18.10;99.90;;;;;;6370551;22;20014;-84
2023/07/28 05:10:45;;;;;;;5.75;1.95;;;18.10;99.90;;;;;;6370938;22;20332;-83
2023/07/28 05:13:10;;;;;;;4.43;1.73;;;18.10;99.90;;;;;;6369747;22;20067;-83
2023/07/28 05:15:36;;;;;;;2.92;1.55;;;18.10;99.90;;;;;;6370293;22;20011;-83
2023/07/28 05:18:02;;;;;;;7.05;2.35;;;18.10;99.90;;;;;;6369310;22;20092;-83
2023/07/28 05:20:28;;;;;;;5.47;1.90;;;18.10;99.90;;;;;;6370612;22;20451;-83
2023/07/28 05:22:53;;;;;;;5.55;2.17;;;18.10;99.90;;;;;;6370165;22;20045;-83
2023/07/28 05:25:19;;;;;;;5.00;1.88;;;18.20;99.90;;;;;;6342765;22;20085;-83
2023/07/28 05:27:44;;;;;;;2.95;1.77;;;18.20;99.90;;;;;;6370064;22;20441;-84
2023/07/28 05:30:10;;;;;;;4.85;1.75;;;18.20;99.90;;;;;;6370028;22;20063;-83
2023/07/28 05:32:36;;;;;;;4.90;2.25;;;18.20;99.90;;;;;;6342381;22;20015;-83
2023/07/28 05:35:02;;;;;;;3.00;1.50;;;18.20;99.90;;;;;;6370516;22;20010;-83
2023/07/28 05:37:27;;;;;;;6.90;1.70;;;18.20;99.90;;;;;;6370249;22;20015;-84
2023/07/28 05:39:53;;;;;;;4.28;2.45;;;18.20;99.90;;;;;;6342458;22;20440;-84
2023/07/28 05:42:19;;;;;;;4.05;1.92;;;18.20;99.90;;;;;;6370099;22;20089;-83
2023/07/28 05:44:44;;;;;;;4.55;1.95;;;18.20;99.90;;;;;;6369976;22;20014;-83
2023/07/28 05:47:10;;;;;;;2.53;1.63;;;18.20;99.90;;;;;;6370191;22;20050;-85
2023/07/28 05:49:36;;;;;;;4.32;2.10;;;18.20;99.90;;;;;;6369895;22;20022;-83
2023/07/28 05:52:02;;;;;;;3.35;1.85;;;18.20;99.90;;;;;;6370106;22;20025;-84
2023/07/28 05:54:28;;;;;;;2.35;1.50;;;18.20;99.90;;;;;;6370237;22;20010;-84
2023/07/28 05:56:53;;;;;;;4.70;1.98;;;18.20;99.90;;;;;;6370268;22;20468;-83
2023/07/28 05:59:19;;;;;;;3.95;1.98;;;18.20;99.90;;;;;;6342120;22;20504;-83
2023/07/28 06:01:45;;;;;;;3.25;2.00;;;18.20;99.90;;;;;;6370211;22;20075;-83
2023/07/28 06:04:10;;;;;;;3.97;2.15;;;18.20;99.90;;;;;;6342317;22;20010;-83
2023/07/28 06:06:36;;;;;;;4.82;2.10;;;18.20;99.90;;;;;;6341639;22;20835;-83
2023/07/28 06:09:02;;;;;;;8.00;2.22;;;18.30;99.90;;;;;;6369486;22;20085;-82
2023/07/28 06:11:28;;;;;;;5.10;1.85;;;18.30;99.90;;;;;;6369419;22;20018;-83
2023/07/28 06:13:53;;;;;;;3.28;1.88;;;18.40;99.90;;;;;;6342114;22;20006;-83
2023/07/28 06:16:19;;;;;;;2.28;1.55;;;18.40;99.90;;;;;;6369675;22;20019;-83
2023/07/28 06:18:45;;;;;;;5.93;3.38;;;18.40;99.90;;;;;;6370184;22;20075;-82
2023/07/28 06:21:10;;;;;;;2.65;1.90;;;18.40;99.90;;;;;;6369949;22;20416;-83
2023/07/28 06:23:36;;;;;;;3.08;1.70;;;18.40;99.90;;;;;;6369434;22;20096;-83
2023/07/28 06:26:02;;;;;;;5.57;1.75;;;18.40;99.90;;;;;;6370215;22;20041;-83
2023/07/28 06:28:27;;;;;;;4.93;2.88;;;18.50;99.90;;;;;;6369762;22;20018;-84
2023/07/28 06:30:58;;;;;;;2.70;1.77;;;18.50;99.90;;;;;;6342148;22;20015;-83
2023/07/28 06:33:27;;;;;;;7.45;3.78;;;18.50;99.90;;;;;;6315896;22;20015;-83
2023/07/28 06:35:53;;;;;;;2.40;1.77;;;18.60;99.90;;;;;;6369869;22;20014;-83
2023/07/28 06:38:19;;;;;;;2.78;1.35;;;18.50;99.90;;;;;;6369233;22;20006;-83
2023/07/28 06:40:44;;;;;;;7.53;2.20;;;18.60;99.90;;;;;;6370105;22;20015;-83
2023/07/28 06:43:10;;;;;;;2.75;1.98;;;18.60;99.90;;;;;;6370022;22;20081;-83
2023/07/28 06:45:36;;;;;;;5.18;2.08;;;18.60;99.90;;;;;;6341729;22;20025;-82
2023/07/28 06:48:03;;;;;;;2.97;1.80;;;18.60;99.90;;;;;;6368704;22;20349;-83
2023/07/28 06:50:28;;;;;;;3.17;2.08;;;18.70;99.90;;;;;;6369078;22;20085;-85
2023/07/28 06:52:54;;;;;;;7.57;4.10;;;18.80;99.90;;;;;;6369837;22;20045;-83
2023/07/28 06:55:21;;;;;;;8.10;4.10;;;18.90;99.90;;;;;;6369724;22;20029;-83
2023/07/28 06:57:47;;;;;;;4.47;2.63;;;18.90;99.90;;;;;;6369185;22;20091;-81
2023/07/28 07:00:14;;;;;;;4.53;2.40;;;18.90;99.90;;;;;;6369285;22;20497;-85
2023/07/28 07:02:40;;;;;;;2.50;1.90;;;19.00;99.90;;;;;;6369660;22;20071;-83
2023/07/28 07:05:06;;;;;;;3.35;1.50;;;19.00;99.90;;;;;;6341645;22;20015;-86
2023/07/28 07:07:32;;;;;;;1.80;1.13;;;19.00;99.90;;;;;;6369698;22;20018;-85
2023/07/28 07:09:58;;;;;;;4.00;2.28;;;19.10;99.90;;;;;;6369129;22;20014;-85
2023/07/28 07:12:24;;;;;;;2.33;1.50;;;19.20;99.90;;;;;;6341483;22;20014;-84
2023/07/28 07:14:50;;;;;;;2.30;1.30;;;19.20;99.90;;;;;;6369590;22;20014;-84
2023/07/28 07:17:15;;;;;;;1.52;1.20;;;19.20;99.90;;;;;;6341382;22;20071;-82
2023/07/28 07:19:41;;;;;;;2.83;1.58;;;19.20;99.90;;;;;;6341327;22;20021;-84
2023/07/28 07:22:06;;;;;;;3.35;2.50;;;19.20;99.90;;;;;;6315993;22;20075;-85
2023/07/28 07:24:32;;;;;;;3.05;2.28;;;19.30;99.90;;;;;;6341474;22;20453;-84
2023/07/28 07:26:58;;;;;;;4.82;2.92;;;19.40;99.90;;;;;;6341503;22;20018;-82
2023/07/28 07:29:24;;;;;;;2.92;1.60;;;19.50;99.90;;;;;;6341172;22;20014;-82
2023/07/28 07:31:54;;;;;;;3.70;2.50;;;19.60;99.90;;;;;;6369628;22;20025;-82
2023/07/28 07:34:21;;;;;;;2.35;1.60;;;19.70;99.90;;;;;;6341136;22;20006;-83
2023/07/28 07:36:47;;;;;;;2.85;2.15;;;19.80;99.90;;;;;;6342980;22;20021;-83
2023/07/28 07:39:12;;;;;;;2.85;1.48;;;19.80;99.90;;;;;;6343144;22;20040;-83
2023/07/28 07:41:38;;;;;;;2.03;1.38;;;19.90;99.90;;;;;;6370809;22;20015;-83
2023/07/28 07:44:04;;;;;;;2.60;1.77;;;19.90;99.90;;;;;;6317641;22;20029;-83
2023/07/28 07:46:30;;;;;;;2.08;1.40;;;20.00;99.90;;;;;;6342955;22;20049;-83
2023/07/28 07:48:56;;;;;;;1.30;0.90;;;20.10;99.90;;;;;;6371052;22;20026;-82
2023/07/28 07:51:22;;;;;;;2.58;1.05;;;20.10;99.90;;;;;;6342861;22;20010;-84
2023/07/28 07:53:47;;;;;;;1.33;1.10;;;20.20;99.90;;;;;;6369985;22;20014;-82
2023/07/28 07:56:13;;;;;;;1.85;1.05;;;20.20;99.90;;;;;;6339876;22;20093;-82
2023/07/28 07:58:39;;;;;;;2.00;1.52;;;20.30;99.90;;;;;;6369444;22;20010;-82
2023/07/28 08:01:05;;;;;;;1.90;1.40;;;20.40;99.90;;;;;;6369189;22;20011;-82
2023/07/28 08:03:31;;;;;;;2.13;1.13;;;20.50;99.90;;;;;;6369969;22;20018;-82
2023/07/28 08:05:57;;;;;;;2.80;1.45;;;20.60;99.90;;;;;;6369047;22;20022;-82
2023/07/28 08:08:23;;;;;;;2.30;1.20;;;20.60;99.90;;;;;;6369016;22;20138;-83
2023/07/28 08:10:50;;;;;;;3.47;2.15;;;20.70;99.90;;;;;;6370978;22;20085;-82
2023/07/28 08:13:16;;;;;;;1.92;1.40;;;20.80;99.90;;;;;;6369309;22;20017;-82
2023/07/28 08:15:46;;;;;;;3.05;1.80;;;20.80;99.90;;;;;;6370985;22;20011;-82
2023/07/28 08:18:12;;;;;;;3.58;1.17;;;20.90;99.90;;;;;;6369026;22;20404;-81
2023/07/28 08:20:38;;;;;;;1.80;1.10;;;20.90;99.90;;;;;;6370600;22;20014;-82
2023/07/28 08:23:04;;;;;;;2.40;1.75;;;21.00;99.90;;;;;;6370235;22;20051;-81
2023/07/28 08:25:30;;;;;;;2.50;1.70;;;21.20;99.90;;;;;;6369155;22;20050;-83
2023/07/28 08:27:55;;;;;;;4.38;1.77;;;21.30;99.90;;;;;;6370384;22;20024;-84
2023/07/28 08:30:21;;;;;;;1.98;1.60;;;21.40;99.90;;;;;;6370930;22;20085;-84
2023/07/28 08:32:47;;;;;;;2.40;1.63;;;21.40;99.90;;;;;;6371249;22;20015;-82
2023/07/28 08:35:12;;;;;;;4.13;1.40;;;21.50;99.90;;;;;;6370160;22;20015;-83
2023/07/28 08:37:38;;;;;;;2.38;1.25;;;21.40;99.90;;;;;;6370734;22;20098;-85
2023/07/28 08:40:05;;;;;;;4.10;1.52;;;21.50;99.90;;;;;;6370681;22;20018;-84
2023/07/28 08:42:36;;;;;;;2.28;1.50;;;21.40;99.90;;;;;;6370387;22;20014;-82
2023/07/28 08:45:04;;;;;;;1.60;1.00;;;21.40;99.90;;;;;;6368645;22;20344;-83
2023/07/28 08:47:33;;;;;;;3.65;1.52;;;21.30;99.90;;;;;;6369936;22;20021;-83
2023/07/28 08:49:58;;;;;;;2.20;1.50;;;21.20;99.90;;;;;;6368912;22;20017;-85
2023/07/28 08:52:24;;;;;;;2.15;1.33;;;21.30;99.90;;;;;;6370510;22;20046;-83
2023/07/28 08:54:50;;;;;;;3.30;1.70;;;21.20;99.90;;;;;;6370426;22;20010;-85
2023/07/28 08:57:16;;;;;;;2.10;1.30;;;21.20;99.90;;;;;;6370128;22;20221;-84
2023/07/28 08:59:47;;;;;;;2.05;1.27;;;21.20;99.90;;;;;;6370866;22;20011;-82
2023/07/28 09:02:15;;;;;;;2.65;1.50;;;21.20;99.90;;;;;;6340660;22;20018;-85
2023/07/28 09:04:44;;;;;;;2.85;1.48;;;21.50;99.90;;;;;;6370674;22;20017;-86
2023/07/28 09:07:10;;;;;;;1.80;1.17;;;21.60;99.90;;;;;;6342191;22;20321;-86
2023/07/28 09:09:36;;;;;;;1.65;1.00;;;21.60;99.90;;;;;;6370142;22;20097;-86
2023/07/28 09:12:03;;;;;;;2.80;1.00;;;21.70;99.90;;;;;;6370549;22;20314;-84
2023/07/28 09:14:30;;;;;;;2.33;1.33;;;21.80;99.90;;;;;;6369696;22;20014;-87
2023/07/28 09:17:07;;;;;;;1.95;1.33;;;21.90;99.90;;;;;;6343196;22;20508;-85
2023/07/28 09:19:33;;;;;;;3.55;1.83;;;21.90;99.90;;;;;;6370605;22;20419;-85
2023/07/28 09:22:01;;;;;;;2.05;1.30;;;22.00;99.90;;;;;;6342557;22;20049;-84
2023/07/28 09:24:33;;;;;;;3.15;1.60;;;22.00;99.90;;;;;;6370436;22;20399;-87
2023/07/28 09:27:00;;;;;;;2.40;1.35;;;22.10;99.90;;;;;;6369874;22;20025;-86
2023/07/28 09:29:27;;;;;;;3.60;1.30;;;22.10;99.90;;;;;;6369900;22;20007;-86
2023/07/28 09:32:02;;;;;;;1.70;1.45;;;22.10;99.90;;;;;;6370162;22;20021;-85
2023/07/28 09:34:28;;;;;;;2.30;1.38;;;22.10;99.90;;;;;;6370526;22;20089;-86
2023/07/28 09:36:58;;;;;;;3.35;1.27;;;22.10;99.90;;;;;;6342433;22;20033;-86
2023/07/28 09:39:25;;;;;;;1.38;1.00;;;22.10;99.90;;;;;;6370239;22;20028;-86
2023/07/28 09:41:51;;;;;;;2.95;1.63;;;22.00;99.90;;;;;;6368263;22;20014;-89
2023/07/28 09:44:17;;;;;;;1.92;1.38;;;22.00;99.90;;;;;;6340940;22;20022;-87
2023/07/28 09:46:51;;;;;;;2.03;1.00;;;22.00;99.90;;;;;;6341808;22;20015;-88
2023/07/28 09:49:22;;;;;;;1.92;1.35;;;22.10;99.90;;;;;;6369410;22;20023;-88
2023/07/28 09:51:52;;;;;;;2.28;1.27;;;22.10;99.90;;;;;;6368933;22;20329;-86
2023/07/28 09:54:29;;;;;;;2.05;1.10;;;22.10;99.90;;;;;;6369630;22;20337;-86
2023/07/28 09:56:59;;;;;;;1.40;1.00;;;22.10;99.90;;;;;;6369487;22;20479;-86
2023/07/28 09:59:32;;;;;;;2.55;1.00;;;22.10;99.90;;;;;;6340571;22;20100;-88
2023/07/28 10:02:00;;;;;;;2.33;1.52;;;22.10;99.90;;;;;;6369702;22;20026;-87
2023/07/28 10:04:26;;;;;;;1.83;1.20;;;22.20;99.90;;;;;;6369761;22;20429;-87
2023/07/28 10:06:56;;;;;;;1.52;1.00;;;22.30;99.90;;;;;;6369746;22;20021;-86
2023/07/28 10:09:25;;;;;;;1.50;1.20;;;22.40;99.90;;;;;;6342471;22;20006;-87
2023/07/28 10:11:51;;;;;;;2.72;1.17;;;22.50;99.90;;;;;;6370582;22;20429;-90
2023/07/28 10:14:40;;;;;;;1.65;1.13;;;22.60;99.90;;;;;;6370583;22;20010;-82
2023/07/28 10:17:06;;;;;;;1.40;0.90;;;22.70;99.90;;;;;;6341962;22;20037;-82
2023/07/28 10:19:35;;;;;;;2.35;1.13;;;22.80;99.90;;;;;;6341839;22;20011;-85
2023/07/28 10:22:11;;;;;;;1.40;0.80;;;22.80;99.90;;;;;;6369999;22;20089;-85
2023/07/28 10:25:00;;;;;;;1.60;1.05;;;23.10;99.90;;;;;;6342063;22;20010;-85
2023/07/28 10:27:36;;;;;;;1.17;0.80;;;23.40;99.90;;;;;;6315705;22;20057;-84
2023/07/28 10:30:04;;;;;;;1.27;0.70;;;23.40;99.90;;;;;;6370056;22;20021;-84
2023/07/28 10:32:39;;;;;;;1.20;0.80;;;23.50;99.90;;;;;;6369782;22;20017;-84
2023/07/28 10:35:14;;;;;;;0.70;0.53;;;23.50;99.90;;;;;;6369683;22;20007;-83
2023/07/28 10:37:49;;;;;;;0.68;0.52;;;23.50;99.90;;;;;;6369326;22;20444;-86
2023/07/28 10:40:26;;;;;;;1.58;0.63;;;23.60;99.90;;;;;;6342471;22;20491;-85
2023/07/28 10:42:53;;;;;;;1.33;0.80;;;23.60;99.90;;;;;;6369957;22;20085;-86
2023/07/28 10:45:20;;;;;;;3.10;0.70;;;23.70;99.90;;;;;;6341909;22;20309;-84
2023/07/28 10:47:47;;;;;;;1.10;0.80;;;23.80;99.90;;;;;;6369569;22;20014;-85
2023/07/28 10:50:13;;;;;;;1.17;0.85;;;23.90;99.90;;;;;;6370074;22;20090;-85
2023/07/28 10:52:43;;;;;;;1.17;0.88;;;24.20;99.90;;;;;;6341635;22;20026;-83
2023/07/28 10:55:24;;;;;;;1.20;0.70;;;24.30;99.90;;;;;;6347518;22;20033;-83
2023/07/28 10:57:51;;;;;;;0.80;0.63;;;24.30;99.90;;;;;;6369886;22;20317;-85
2023/07/28 11:00:18;;;;;;;1.17;0.95;;;24.10;99.90;;;;;;6368929;22;20447;-84
2023/07/28 11:02:46;;;;;;;2.83;1.00;;;24.10;99.90;;;;;;6370116;22;20329;-83
2023/07/28 11:05:14;;;;;;;1.70;1.00;;;24.20;99.90;;;;;;6368190;22;20014;-84
2023/07/28 11:07:43;;;;;;;2.88;1.33;;;24.30;99.90;;;;;;6369377;22;20022;-84
2023/07/28 11:10:11;;;;;;;1.75;1.35;;;24.50;99.90;;;;;;6369432;22;20445;-81
2023/07/28 11:12:42;;;;;;;1.20;1.00;;;24.60;99.90;;;;;;6372070;22;20018;-86
2023/07/28 11:15:13;;;;;;;1.60;1.23;;;24.30;99.90;;;;;;6369672;22;20089;-82
2023/07/28 11:17:45;;;;;;;1.23;0.85;;;23.90;99.90;;;;;;6371022;22;20026;-84
2023/07/28 11:20:25;;;;;;;1.80;1.00;;;23.90;99.90;;;;;;6371804;22;20011;-85
2023/07/28 11:22:54;;;;;;;2.67;1.00;;;24.00;99.90;;;;;;6371008;22;20022;-85
2023/07/28 11:25:21;;;;;;;1.25;0.80;;;24.30;99.90;;;;;;6371483;22;20011;-87
2023/07/28 11:27:47;;;;;;;1.40;0.52;;;24.60;99.90;;;;;;6371428;22;20018;-86
2023/07/28 11:30:15;;;;;;;0.50;0.40;;;24.70;99.90;;;;;;6371291;22;20016;-86
2023/07/28 11:32:44;;;;;;;1.83;0.47;;;24.80;99.90;;;;;;6371221;22;20441;-86
2023/07/28 11:35:11;;;;;;;0.70;0.45;;;24.80;99.90;;;;;;6370865;22;20042;-86
2023/07/28 11:37:39;;;;;;;1.42;0.57;;;24.80;99.90;;;;;;6370343;22;20010;-86
2023/07/28 11:40:06;;;;;;;0.60;0.40;;;25.00;99.90;;;;;;6343197;22;20021;-85
2023/07/28 11:42:37;;;;;;;0.65;0.47;;;25.10;99.90;;;;;;6371472;22;20102;-85
2023/07/28 11:45:04;;;;;;;1.30;0.40;;;25.50;99.90;;;;;;6369514;22;20018;-86
2023/07/28 11:47:30;;;;;;;1.10;0.50;;;25.80;99.90;;;;;;6369476;22;20028;-85
2023/07/28 11:49:58;;;;;;;0.30;0.30;;;26.00;99.90;;;;;;6369211;22;20006;-86
2023/07/28 11:52:37;;;;;;;1.27;0.40;;;26.00;99.90;;;;;;6369465;22;20063;-86
2023/07/28 11:55:06;;;;;;;1.10;0.55;;;26.10;99.90;;;;;;6369468;22;20010;-86
2023/07/28 11:57:33;;;;;;;2.67;0.60;;;26.30;99.90;;;;;;6371531;22;20025;-85
2023/07/28 11:59:59;;;;;;;1.80;0.50;;;26.60;99.90;;;;;;6371414;22;20011;-85
2023/07/28 12:02:27;;;;;;;1.40;0.40;;;26.80;99.90;;;;;;6371409;22;20341;-86
2023/07/28 12:04:54;;;;;;;1.63;0.40;;;26.40;99.90;;;;;;6342425;22;20045;-85
2023/07/28 12:07:30;;;;;;;1.25;0.70;;;26.10;99.90;;;;;;6368844;22;20071;-85
2023/07/28 12:09:59;;;;;;;0.98;0.47;;;26.30;99.90;;;;;;6369104;22;20018;-85
2023/07/28 12:12:29;;;;;;;1.05;0.30;;;26.40;99.90;;;;;;6371237;22;20024;-84
2023/07/28 12:14:58;;;;;;;1.45;0.40;;;26.60;99.90;;;;;;6343071;22;20014;-86
2023/07/28 12:17:27;;;;;;;1.05;0.47;;;26.90;99.90;;;;;;6369148;22;20066;-86
2023/07/28 12:20:01;;;;;;;0.70;0.40;;;27.10;99.90;;;;;;6368862;22;20018;-85
2023/07/28 12:22:28;;;;;;;0.70;0.30;;;27.30;99.90;;;;;;6341933;22;20052;-84
2023/07/28 12:24:54;;;;;;;0.73;0.43;;;27.30;99.90;;;;;;6369434;22;20448;-84
2023/07/28 12:27:23;;;;;;;0.77;0.25;;;27.50;99.90;;;;;;6368733;22;20040;-85
2023/07/28 12:29:49;;;;;;;0.30;0.20;;;27.60;99.90;;;;;;6369383;22;20014;-85
2023/07/28 12:32:15;;;;;;;1.25;0.30;;;27.70;99.90;;;;;;6341899;22;20014;-87
2023/07/28 12:34:41;;;;;;;1.38;0.30;;;27.80;99.90;;;;;;6368777;22;20011;-84
2023/07/28 12:37:07;;;;;;;0.85;0.28;;;28.00;99.90;;;;;;6368666;22;20018;-84
2023/07/28 12:39:38;;;;;;;0.73;0.32;;;27.90;99.90;;;;;;6368738;22;20021;-84
2023/07/28 12:42:05;;;;;;;1.55;0.30;;;27.80;99.90;;;;;;6371114;22;20109;-84
2023/07/28 12:44:31;;;;;;;0.63;0.45;;;27.80;99.90;;;;;;6368500;22;20014;-84